sensor_id;sensor_type;location;lat;lon;timestamp;temperature;humidity
7972;DHT22;4031;49.758;6.120;2022-12-07T00:01:33;2.00;99.90
7972;DHT22;4031;49.758;6.120;2022-12-07T00:04:03;2.00;99.90
7972;DHT22;4031;49.758;6.120;2022-12-07T00:06:34;2.00;99.90
7972;DHT22;4031;49.758;6.120;2022-12-07T00:09:03;2.00;99.90
7972;DHT22;4031;49.758;6.120;2022-12-07T00:11:29;2.00;99.90
7972;DHT22;4031;49.758;6.120;2022-12-07T00:13:58;2.00;99.90
7972;DHT22;4031;49.758;6.120;2022-12-07T00:16:27;2.00;99.90
7972;DHT22;4031;49.758;6.120;2022-12-07T00:18:56;2.10;99.90
7972;DHT22;4031;49.758;6.120;2022-12-07T00:21:27;2.00;99.90
7972;DHT22;4031;49.758;6.120;2022-12-07T00:23:54;2.00;99.90
7972;DHT22;4031;49.758;6.120;2022-12-07T00:26:23;2.00;99.90
7972;DHT22;4031;49.758;6.120;2022-12-07T00:28:56;2.00;99.90
7972;DHT22;4031;49.758;6.120;2022-12-07T00:31:26;2.00;99.90
7972;DHT22;4031;49.758;6.120;2022-12-07T00:33:53;2.00;99.90
7972;DHT22;4031;49.758;6.120;2022-12-07T00:36:21;1.90;99.90
7972;DHT22;4031;49.758;6.120;2022-12-07T00:38:48;1.90;99.90
7972;DHT22;4031;49.758;6.120;2022-12-07T00:41:16;1.90;99.90
7972;DHT22;4031;49.758;6.120;2022-12-07T00:43:44;1.90;99.90
7972;DHT22;4031;49.758;6.120;2022-12-07T00:46:11;1.80;99.90
7972;DHT22;4031;49.758;6.120;2022-12-07T00:48:38;1.80;99.90
7972;DHT22;4031;49.758;6.120;2022-12-07T00:51:04;1.80;99.90
7972;DHT22;4031;49.758;6.120;2022-12-07T00:53:33;1.80;99.90
7972;DHT22;4031;49.758;6.120;2022-12-07T00:56:05;1.70;99.90
7972;DHT22;4031;49.758;6.120;2022-12-07T00:58:31;1.70;99.90
7972;DHT22;4031;49.758;6.120;2022-12-07T01:01:03;1.70;99.90
7972;DHT22;4031;49.758;6.120;2022-12-07T01:03:31;1.60;99.90
7972;DHT22;4031;49.758;6.120;2022-12-07T01:05:57;1.60;99.90
7972;DHT22;4031;49.758;6.120;2022-12-07T01:08:24;1.60;99.90
7972;DHT22;4031;49.758;6.120;2022-12-07T01:10:58;1.60;99.90
7972;DHT22;4031;49.758;6.120;2022-12-07T01:13:35;1.60;99.90
7972;DHT22;4031;49.758;6.120;2022-12-07T01:16:03;1.60;99.90
7972;DHT22;4031;49.758;6.120;2022-12-07T01:18:32;1.60;99.90
7972;DHT22;4031;49.758;6.120;2022-12-07T01:21:03;1.60;99.90
7972;DHT22;4031;49.758;6.120;2022-12-07T01:23:39;1.60;99.90
7972;DHT22;4031;49.758;6.120;2022-12-07T01:26:09;1.60;99.90
7972;DHT22;4031;49.758;6.120;2022-12-07T01:28:36;1.70;99.90
7972;DHT22;4031;49.758;6.120;2022-12-07T01:31:08;1.70;99.90
7972;DHT22;4031;49.758;6.120;2022-12-07T01:33:38;1.80;99.90
7972;DHT22;4031;49.758;6.120;2022-12-07T01:36:06;1.90;99.90
7972;DHT22;4031;49.758;6.120;2022-12-07T01:38:34;2.00;99.90
7972;DHT22;4031;49.758;6.120;2022-12-07T01:41:01;2.00;99.90
7972;DHT22;4031;49.758;6.120;2022-12-07T01:43:29;2.10;99.90
7972;DHT22;4031;49.758;6.120;2022-12-07T01:45:56;2.10;99.90
7972;DHT22;4031;49.758;6.120;2022-12-07T01:48:38;2.10;99.90
7972;DHT22;4031;49.758;6.120;2022-12-07T01:51:09;2.20;99.90
7972;DHT22;4031;49.758;6.120;2022-12-07T01:53:41;2.20;99.90
7972;DHT22;4031;49.758;6.120;2022-12-07T01:56:12;2.30;99.90
7972;DHT22;4031;49.758;6.120;2022-12-07T01:58:43;2.30;99.90
7972;DHT22;4031;49.758;6.120;2022-12-07T02:01:09;2.30;99.90
7972;DHT22;4031;49.758;6.120;2022-12-07T02:03:39;2.40;99.90
7972;DHT22;4031;49.758;6.120;2022-12-07T02:06:07;2.40;99.90
7972;DHT22;4031;49.758;6.120;2022-12-07T02:08:33;2.40;99.90
7972;DHT22;4031;49.758;6.120;2022-12-07T02:11:01;2.50;99.90
7972;DHT22;4031;49.758;6.120;2022-12-07T02:13:30;2.50;99.90
7972;DHT22;4031;49.758;6.120;2022-12-07T02:16:51;2.50;99.90
7972;DHT22;4031;49.758;6.120;2022-12-07T02:22:31;2.60;99.90
7972;DHT22;4031;49.758;6.120;2022-12-07T02:25:33;2.60;99.90
7972;DHT22;4031;49.758;6.120;2022-12-07T02:28:17;2.60;99.90
7972;DHT22;4031;49.758;6.120;2022-12-07T02:30:50;2.60;99.90
7972;DHT22;4031;49.758;6.120;2022-12-07T02:33:28;2.60;99.90
7972;DHT22;4031;49.758;6.120;2022-12-07T02:36:05;2.60;99.90
7972;DHT22;4031;49.758;6.120;2022-12-07T02:41:24;2.60;99.90
7972;DHT22;4031;49.758;6.120;2022-12-07T02:43:58;2.60;99.90
7972;DHT22;4031;49.758;6.120;2022-12-07T02:46:29;2.60;99.90
7972;DHT22;4031;49.758;6.120;2022-12-07T02:48:57;2.70;99.90
7972;DHT22;4031;49.758;6.120;2022-12-07T02:51:25;2.70;99.90
7972;DHT22;4031;49.758;6.120;2022-12-07T02:53:51;2.60;99.90
7972;DHT22;4031;49.758;6.120;2022-12-07T03:04:43;2.70;99.90
7972;DHT22;4031;49.758;6.120;2022-12-07T03:10:25;2.80;99.90
7972;DHT22;4031;49.758;6.120;2022-12-07T03:16:21;2.80;99.90
7972;DHT22;4031;49.758;6.120;2022-12-07T03:18:57;2.80;99.90
7972;DHT22;4031;49.758;6.120;2022-12-07T03:21:32;2.80;99.90
7972;DHT22;4031;49.758;6.120;2022-12-07T03:24:07;2.80;99.90
7972;DHT22;4031;49.758;6.120;2022-12-07T03:26:38;2.80;99.90
7972;DHT22;4031;49.758;6.120;2022-12-07T03:29:28;2.80;99.90
7972;DHT22;4031;49.758;6.120;2022-12-07T03:32:08;2.80;99.90
7972;DHT22;4031;49.758;6.120;2022-12-07T03:35:02;2.90;99.90
7972;DHT22;4031;49.758;6.120;2022-12-07T03:37:36;2.70;99.90
7972;DHT22;4031;49.758;6.120;2022-12-07T03:40:22;2.80;99.90
7972;DHT22;4031;49.758;6.120;2022-12-07T03:42:52;2.80;99.90
7972;DHT22;4031;49.758;6.120;2022-12-07T03:45:21;2.80;99.90
7972;DHT22;4031;49.758;6.120;2022-12-07T03:54:00;2.90;99.90
7972;DHT22;4031;49.758;6.120;2022-12-07T03:56:31;2.90;99.90
7972;DHT22;4031;49.758;6.120;2022-12-07T03:58:57;2.90;99.90
7972;DHT22;4031;49.758;6.120;2022-12-07T04:01:24;2.90;99.90
7972;DHT22;4031;49.758;6.120;2022-12-07T04:03:50;2.90;99.90
7972;DHT22;4031;49.758;6.120;2022-12-07T04:06:16;2.90;99.90
7972;DHT22;4031;49.758;6.120;2022-12-07T04:08:42;2.90;99.90
7972;DHT22;4031;49.758;6.120;2022-12-07T04:11:08;2.90;99.90
7972;DHT22;4031;49.758;6.120;2022-12-07T04:13:34;3.00;99.90
7972;DHT22;4031;49.758;6.120;2022-12-07T04:16:20;3.00;99.90
7972;DHT22;4031;49.758;6.120;2022-12-07T04:18:46;3.00;99.90
7972;DHT22;4031;49.758;6.120;2022-12-07T04:21:11;3.00;99.90
7972;DHT22;4031;49.758;6.120;2022-12-07T04:23:37;3.00;99.90
7972;DHT22;4031;49.758;6.120;2022-12-07T04:26:03;3.00;99.90
7972;DHT22;4031;49.758;6.120;2022-12-07T04:28:28;3.00;99.90
7972;DHT22;4031;49.758;6.120;2022-12-07T04:30:54;3.00;99.90
7972;DHT22;4031;49.758;6.120;2022-12-07T04:33:20;3.00;99.90
7972;DHT22;4031;49.758;6.120;2022-12-07T04:35:45;3.10;99.90
7972;DHT22;4031;49.758;6.120;2022-12-07T04:38:11;3.00;99.90
7972;DHT22;4031;49.758;6.120;2022-12-07T04:40:37;3.00;99.90
7972;DHT22;4031;49.758;6.120;2022-12-07T04:43:03;3.00;99.90
7972;DHT22;4031;49.758;6.120;2022-12-07T04:45:30;3.00;99.90
7972;DHT22;4031;49.758;6.120;2022-12-07T04:47:55;3.00;99.90
7972;DHT22;4031;49.758;6.120;2022-12-07T04:50:21;3.00;99.90
7972;DHT22;4031;49.758;6.120;2022-12-07T04:52:47;3.00;99.90
7972;DHT22;4031;49.758;6.120;2022-12-07T04:55:12;3.00;99.90
7972;DHT22;4031;49.758;6.120;2022-12-07T04:57:38;3.00;99.90
7972;DHT22;4031;49.758;6.120;2022-12-07T05:00:04;2.90;99.90
7972;DHT22;4031;49.758;6.120;2022-12-07T05:02:31;2.90;99.90
7972;DHT22;4031;49.758;6.120;2022-12-07T05:04:56;2.90;99.90
7972;DHT22;4031;49.758;6.120;2022-12-07T05:07:22;2.90;99.90
7972;DHT22;4031;49.758;6.120;2022-12-07T05:09:48;2.90;99.90
7972;DHT22;4031;49.758;6.120;2022-12-07T05:12:13;2.90;99.90
7972;DHT22;4031;49.758;6.120;2022-12-07T05:14:39;2.90;99.90
7972;DHT22;4031;49.758;6.120;2022-12-07T05:17:05;2.90;99.90
7972;DHT22;4031;49.758;6.120;2022-12-07T05:19:30;2.90;99.90
7972;DHT22;4031;49.758;6.120;2022-12-07T05:21:56;2.80;99.90
7972;DHT22;4031;49.758;6.120;2022-12-07T05:24:22;2.80;99.90
7972;DHT22;4031;49.758;6.120;2022-12-07T05:26:48;2.90;99.90
7972;DHT22;4031;49.758;6.120;2022-12-07T05:29:15;2.90;99.90
7972;DHT22;4031;49.758;6.120;2022-12-07T05:31:42;2.90;99.90
7972;DHT22;4031;49.758;6.120;2022-12-07T05:34:08;2.90;99.90
7972;DHT22;4031;49.758;6.120;2022-12-07T05:36:35;2.80;99.90
7972;DHT22;4031;49.758;6.120;2022-12-07T05:39:00;2.90;99.90
7972;DHT22;4031;49.758;6.120;2022-12-07T05:41:26;2.90;99.90
7972;DHT22;4031;49.758;6.120;2022-12-07T05:44:10;2.90;99.90
7972;DHT22;4031;49.758;6.120;2022-12-07T05:46:36;2.90;99.90
7972;DHT22;4031;49.758;6.120;2022-12-07T05:49:03;2.90;99.90
7972;DHT22;4031;49.758;6.120;2022-12-07T05:51:29;2.90;99.90
7972;DHT22;4031;49.758;6.120;2022-12-07T05:53:54;2.90;99.90
7972;DHT22;4031;49.758;6.120;2022-12-07T05:56:20;2.90;99.90
7972;DHT22;4031;49.758;6.120;2022-12-07T05:58:46;2.90;99.90
7972;DHT22;4031;49.758;6.120;2022-12-07T06:01:30;2.90;99.90
7972;DHT22;4031;49.758;6.120;2022-12-07T06:03:56;2.90;99.90
7972;DHT22;4031;49.758;6.120;2022-12-07T06:06:22;2.90;99.90
7972;DHT22;4031;49.758;6.120;2022-12-07T06:08:47;2.90;99.90
7972;DHT22;4031;49.758;6.120;2022-12-07T06:11:13;2.90;99.90
7972;DHT22;4031;49.758;6.120;2022-12-07T06:13:57;2.90;99.90
7972;DHT22;4031;49.758;6.120;2022-12-07T06:16:23;2.90;99.90
7972;DHT22;4031;49.758;6.120;2022-12-07T06:18:49;3.00;99.90
7972;DHT22;4031;49.758;6.120;2022-12-07T06:21:14;2.90;99.90
7972;DHT22;4031;49.758;6.120;2022-12-07T06:23:40;2.90;99.90
7972;DHT22;4031;49.758;6.120;2022-12-07T06:26:07;3.00;99.90
7972;DHT22;4031;49.758;6.120;2022-12-07T06:28:32;3.00;99.90
7972;DHT22;4031;49.758;6.120;2022-12-07T06:30:59;3.00;99.90
7972;DHT22;4031;49.758;6.120;2022-12-07T06:33:28;2.90;99.90
7972;DHT22;4031;49.758;6.120;2022-12-07T06:35:55;2.90;99.90
7972;DHT22;4031;49.758;6.120;2022-12-07T06:38:21;2.90;99.90
7972;DHT22;4031;49.758;6.120;2022-12-07T06:40:47;2.90;99.90
7972;DHT22;4031;49.758;6.120;2022-12-07T06:43:13;2.90;99.90
7972;DHT22;4031;49.758;6.120;2022-12-07T06:45:40;2.90;99.90
7972;DHT22;4031;49.758;6.120;2022-12-07T06:48:06;2.90;99.90
7972;DHT22;4031;49.758;6.120;2022-12-07T06:50:32;2.90;99.90
7972;DHT22;4031;49.758;6.120;2022-12-07T06:52:57;2.90;99.90
7972;DHT22;4031;49.758;6.120;2022-12-07T06:55:23;2.90;99.90
7972;DHT22;4031;49.758;6.120;2022-12-07T06:57:49;2.90;99.90
7972;DHT22;4031;49.758;6.120;2022-12-07T07:00:15;2.90;99.90
7972;DHT22;4031;49.758;6.120;2022-12-07T07:02:41;2.90;99.90
7972;DHT22;4031;49.758;6.120;2022-12-07T07:05:07;2.90;99.90
7972;DHT22;4031;49.758;6.120;2022-12-07T07:07:33;2.90;99.90
7972;DHT22;4031;49.758;6.120;2022-12-07T07:09:58;3.10;99.90
7972;DHT22;4031;49.758;6.120;2022-12-07T07:12:24;2.90;99.90
7972;DHT22;4031;49.758;6.120;2022-12-07T07:14:50;2.90;99.90
7972;DHT22;4031;49.758;6.120;2022-12-07T07:17:16;2.90;99.90
7972;DHT22;4031;49.758;6.120;2022-12-07T07:19:41;2.90;99.90
7972;DHT22;4031;49.758;6.120;2022-12-07T07:22:07;2.90;99.90
7972;DHT22;4031;49.758;6.120;2022-12-07T07:24:33;2.90;99.90
7972;DHT22;4031;49.758;6.120;2022-12-07T07:26:58;2.90;99.90
7972;DHT22;4031;49.758;6.120;2022-12-07T07:29:24;2.80;99.90
7972;DHT22;4031;49.758;6.120;2022-12-07T07:31:50;2.90;99.90
7972;DHT22;4031;49.758;6.120;2022-12-07T07:34:15;2.90;99.90
7972;DHT22;4031;49.758;6.120;2022-12-07T07:36:41;3.00;99.90
7972;DHT22;4031;49.758;6.120;2022-12-07T07:39:07;2.90;99.90
7972;DHT22;4031;49.758;6.120;2022-12-07T07:41:33;3.00;99.90
7972;DHT22;4031;49.758;6.120;2022-12-07T07:43:58;3.00;99.90
7972;DHT22;4031;49.758;6.120;2022-12-07T07:46:24;3.00;99.90
7972;DHT22;4031;49.758;6.120;2022-12-07T07:48:50;3.00;99.90
7972;DHT22;4031;49.758;6.120;2022-12-07T07:51:15;3.10;99.90
7972;DHT22;4031;49.758;6.120;2022-12-07T07:53:41;3.10;99.90
7972;DHT22;4031;49.758;6.120;2022-12-07T07:56:07;3.10;99.90
7972;DHT22;4031;49.758;6.120;2022-12-07T07:58:33;3.10;99.90
7972;DHT22;4031;49.758;6.120;2022-12-07T08:01:04;3.20;99.90
7972;DHT22;4031;49.758;6.120;2022-12-07T08:03:30;3.20;99.90
7972;DHT22;4031;49.758;6.120;2022-12-07T08:05:56;3.20;99.90
7972;DHT22;4031;49.758;6.120;2022-12-07T08:08:22;3.30;99.90
7972;DHT22;4031;49.758;6.120;2022-12-07T08:10:48;3.30;99.90
7972;DHT22;4031;49.758;6.120;2022-12-07T08:13:15;3.30;99.90
7972;DHT22;4031;49.758;6.120;2022-12-07T08:15:47;3.40;99.90
7972;DHT22;4031;49.758;6.120;2022-12-07T08:18:14;3.40;99.90
7972;DHT22;4031;49.758;6.120;2022-12-07T08:20:41;3.40;99.90
7972;DHT22;4031;49.758;6.120;2022-12-07T08:23:08;3.50;99.90
7972;DHT22;4031;49.758;6.120;2022-12-07T08:25:35;3.60;99.90
7972;DHT22;4031;49.758;6.120;2022-12-07T08:28:01;3.60;99.90
7972;DHT22;4031;49.758;6.120;2022-12-07T08:30:28;3.60;99.90
7972;DHT22;4031;49.758;6.120;2022-12-07T08:32:55;3.70;99.90
7972;DHT22;4031;49.758;6.120;2022-12-07T08:35:21;3.70;99.90
7972;DHT22;4031;49.758;6.120;2022-12-07T08:37:47;3.70;99.90
7972;DHT22;4031;49.758;6.120;2022-12-07T08:40:14;3.80;99.90
7972;DHT22;4031;49.758;6.120;2022-12-07T08:42:44;3.80;99.90
7972;DHT22;4031;49.758;6.120;2022-12-07T08:45:15;3.90;99.90
7972;DHT22;4031;49.758;6.120;2022-12-07T08:47:46;3.90;99.90
7972;DHT22;4031;49.758;6.120;2022-12-07T08:50:15;3.90;99.90
7972;DHT22;4031;49.758;6.120;2022-12-07T08:52:41;4.00;99.90
7972;DHT22;4031;49.758;6.120;2022-12-07T08:55:10;4.00;99.90
7972;DHT22;4031;49.758;6.120;2022-12-07T08:57:36;4.10;99.90
7972;DHT22;4031;49.758;6.120;2022-12-07T09:00:04;4.00;99.90
7972;DHT22;4031;49.758;6.120;2022-12-07T09:02:31;4.20;99.90
7972;DHT22;4031;49.758;6.120;2022-12-07T09:04:57;4.30;99.90
7972;DHT22;4031;49.758;6.120;2022-12-07T09:07:24;4.40;99.90
7972;DHT22;4031;49.758;6.120;2022-12-07T09:09:50;4.30;99.90
7972;DHT22;4031;49.758;6.120;2022-12-07T09:12:16;4.20;99.90
7972;DHT22;4031;49.758;6.120;2022-12-07T09:14:42;4.00;99.90
7972;DHT22;4031;49.758;6.120;2022-12-07T09:17:09;3.80;99.90
7972;DHT22;4031;49.758;6.120;2022-12-07T09:19:37;3.60;99.90
7972;DHT22;4031;49.758;6.120;2022-12-07T09:22:04;3.50;99.90
7972;DHT22;4031;49.758;6.120;2022-12-07T09:24:30;3.40;99.90
7972;DHT22;4031;49.758;6.120;2022-12-07T09:26:57;3.30;99.90
7972;DHT22;4031;49.758;6.120;2022-12-07T09:29:23;3.40;99.90
7972;DHT22;4031;49.758;6.120;2022-12-07T09:31:50;3.60;99.90
7972;DHT22;4031;49.758;6.120;2022-12-07T09:34:17;3.70;99.90
7972;DHT22;4031;49.758;6.120;2022-12-07T09:36:43;3.90;99.90
7972;DHT22;4031;49.758;6.120;2022-12-07T09:39:09;4.20;99.90
7972;DHT22;4031;49.758;6.120;2022-12-07T09:41:39;4.30;99.90
7972;DHT22;4031;49.758;6.120;2022-12-07T09:44:15;4.50;99.90
7972;DHT22;4031;49.758;6.120;2022-12-07T09:46:48;4.60;99.90
7972;DHT22;4031;49.758;6.120;2022-12-07T09:49:21;4.70;99.90
7972;DHT22;4031;49.758;6.120;2022-12-07T09:52:24;4.80;99.90
7972;DHT22;4031;49.758;6.120;2022-12-07T09:54:48;4.90;99.90
7972;DHT22;4031;49.758;6.120;2022-12-07T09:57:15;5.00;99.90
7972;DHT22;4031;49.758;6.120;2022-12-07T09:59:41;5.00;99.90
7972;DHT22;4031;49.758;6.120;2022-12-07T10:05:00;4.70;99.90
7972;DHT22;4031;49.758;6.120;2022-12-07T10:07:26;4.50;99.90
7972;DHT22;4031;49.758;6.120;2022-12-07T10:09:52;4.60;99.90
7972;DHT22;4031;49.758;6.120;2022-12-07T10:12:18;4.80;99.90
7972;DHT22;4031;49.758;6.120;2022-12-07T10:15:00;5.00;99.90
7972;DHT22;4031;49.758;6.120;2022-12-07T10:17:41;5.20;99.90
7972;DHT22;4031;49.758;6.120;2022-12-07T10:23:08;5.50;99.90
7972;DHT22;4031;49.758;6.120;2022-12-07T10:25:39;5.70;99.90
7972;DHT22;4031;49.758;6.120;2022-12-07T10:28:15;6.00;99.90
7972;DHT22;4031;49.758;6.120;2022-12-07T10:31:03;6.40;99.90
7972;DHT22;4031;49.758;6.120;2022-12-07T10:34:00;7.10;99.90
7972;DHT22;4031;49.758;6.120;2022-12-07T10:36:38;7.90;99.90
7972;DHT22;4031;49.758;6.120;2022-12-07T10:39:15;8.40;99.90
7972;DHT22;4031;49.758;6.120;2022-12-07T10:41:59;8.40;99.90
7972;DHT22;4031;49.758;6.120;2022-12-07T10:44:31;8.10;99.90
7972;DHT22;4031;49.758;6.120;2022-12-07T11:07:35;7.60;99.90
7972;DHT22;4031;49.758;6.120;2022-12-07T11:11:04;8.30;99.90
7972;DHT22;4031;49.758;6.120;2022-12-07T11:16:28;7.70;99.90
7972;DHT22;4031;49.758;6.120;2022-12-07T11:24:32;6.60;99.90
7972;DHT22;4031;49.758;6.120;2022-12-07T11:27:58;6.50;99.90
7972;DHT22;4031;49.758;6.120;2022-12-07T11:30:42;6.30;99.90
7972;DHT22;4031;49.758;6.120;2022-12-07T11:33:55;6.20;99.90
7972;DHT22;4031;49.758;6.120;2022-12-07T11:36:39;6.00;99.90
7972;DHT22;4031;49.758;6.120;2022-12-07T11:39:46;5.80;99.90
7972;DHT22;4031;49.758;6.120;2022-12-07T11:42:26;5.70;99.90
7972;DHT22;4031;49.758;6.120;2022-12-07T11:47:47;5.60;99.90
7972;DHT22;4031;49.758;6.120;2022-12-07T11:50:54;5.60;99.90
7972;DHT22;4031;49.758;6.120;2022-12-07T11:53:48;5.70;99.90
7972;DHT22;4031;49.758;6.120;2022-12-07T11:56:20;5.70;99.90
7972;DHT22;4031;49.758;6.120;2022-12-07T12:06:53;6.00;99.90
7972;DHT22;4031;49.758;6.120;2022-12-07T12:09:36;6.00;99.90
7972;DHT22;4031;49.758;6.120;2022-12-07T12:21:41;5.80;99.90
7972;DHT22;4031;49.758;6.120;2022-12-07T12:24:18;5.80;99.90
7972;DHT22;4031;49.758;6.120;2022-12-07T12:26:54;5.90;99.90
7972;DHT22;4031;49.758;6.120;2022-12-07T12:29:35;6.00;99.90
7972;DHT22;4031;49.758;6.120;2022-12-07T12:32:17;6.30;99.90
7972;DHT22;4031;49.758;6.120;2022-12-07T12:37:40;6.80;99.90
7972;DHT22;4031;49.758;6.120;2022-12-07T12:42:53;6.90;99.90
7972;DHT22;4031;49.758;6.120;2022-12-07T12:45:27;6.70;99.90
7972;DHT22;4031;49.758;6.120;2022-12-07T12:48:04;6.50;99.90
7972;DHT22;4031;49.758;6.120;2022-12-07T12:50:37;6.30;99.90
7972;DHT22;4031;49.758;6.120;2022-12-07T12:53:25;6.20;99.90
7972;DHT22;4031;49.758;6.120;2022-12-07T12:58:42;6.00;99.90
7972;DHT22;4031;49.758;6.120;2022-12-07T13:04:02;6.10;99.90
7972;DHT22;4031;49.758;6.120;2022-12-07T13:06:35;6.10;99.90
7972;DHT22;4031;49.758;6.120;2022-12-07T13:09:03;6.30;99.90
7972;DHT22;4031;49.758;6.120;2022-12-07T13:11:45;6.30;99.90
7972;DHT22;4031;49.758;6.120;2022-12-07T13:14:40;6.30;99.90
7972;DHT22;4031;49.758;6.120;2022-12-07T13:19:59;6.40;99.90
7972;DHT22;4031;49.758;6.120;2022-12-07T13:24:57;6.70;99.90
7972;DHT22;4031;49.758;6.120;2022-12-07T13:27:29;6.70;99.90
7972;DHT22;4031;49.758;6.120;2022-12-07T13:29:57;6.60;99.90
7972;DHT22;4031;49.758;6.120;2022-12-07T13:32:27;6.50;99.90
7972;DHT22;4031;49.758;6.120;2022-12-07T13:34:55;6.30;99.90
7972;DHT22;4031;49.758;6.120;2022-12-07T13:40:00;6.10;99.90
7972;DHT22;4031;49.758;6.120;2022-12-07T13:42:34;5.90;99.90
7972;DHT22;4031;49.758;6.120;2022-12-07T13:45:29;5.70;99.90
7972;DHT22;4031;49.758;6.120;2022-12-07T13:48:41;5.60;99.90
7972;DHT22;4031;49.758;6.120;2022-12-07T13:51:17;5.70;99.90
7972;DHT22;4031;49.758;6.120;2022-12-07T13:54:15;5.90;99.90
7972;DHT22;4031;49.758;6.120;2022-12-07T13:56:41;6.20;99.90
7972;DHT22;4031;49.758;6.120;2022-12-07T13:59:19;6.20;99.90
7972;DHT22;4031;49.758;6.120;2022-12-07T14:01:49;6.50;99.90
7972;DHT22;4031;49.758;6.120;2022-12-07T14:06:55;6.90;99.90
7972;DHT22;4031;49.758;6.120;2022-12-07T14:09:23;6.90;99.90
7972;DHT22;4031;49.758;6.120;2022-12-07T14:11:52;6.80;99.90
7972;DHT22;4031;49.758;6.120;2022-12-07T14:14:26;6.70;99.90
7972;DHT22;4031;49.758;6.120;2022-12-07T14:17:16;6.40;99.90
7972;DHT22;4031;49.758;6.120;2022-12-07T14:19:58;6.20;99.90
7972;DHT22;4031;49.758;6.120;2022-12-07T14:22:34;6.10;99.90
7972;DHT22;4031;49.758;6.120;2022-12-07T14:27:37;5.90;99.90
7972;DHT22;4031;49.758;6.120;2022-12-07T14:30:04;5.90;99.90
7972;DHT22;4031;49.758;6.120;2022-12-07T14:32:32;5.80;99.90
7972;DHT22;4031;49.758;6.120;2022-12-07T14:35:11;5.70;99.90
7972;DHT22;4031;49.758;6.120;2022-12-07T14:37:40;5.60;99.90
7972;DHT22;4031;49.758;6.120;2022-12-07T14:40:09;5.50;99.90
7972;DHT22;4031;49.758;6.120;2022-12-07T14:42:51;5.30;99.90
7972;DHT22;4031;49.758;6.120;2022-12-07T14:45:21;5.20;99.90
7972;DHT22;4031;49.758;6.120;2022-12-07T14:47:48;5.00;99.90
7972;DHT22;4031;49.758;6.120;2022-12-07T14:50:16;4.90;99.90
7972;DHT22;4031;49.758;6.120;2022-12-07T14:52:48;4.80;99.90
7972;DHT22;4031;49.758;6.120;2022-12-07T14:55:27;4.70;99.90
7972;DHT22;4031;49.758;6.120;2022-12-07T14:57:55;4.70;99.90
7972;DHT22;4031;49.758;6.120;2022-12-07T15:00:23;4.70;99.90
7972;DHT22;4031;49.758;6.120;2022-12-07T15:02:51;4.60;99.90
7972;DHT22;4031;49.758;6.120;2022-12-07T15:05:17;4.60;99.90
7972;DHT22;4031;49.758;6.120;2022-12-07T15:07:44;4.60;99.90
7972;DHT22;4031;49.758;6.120;2022-12-07T15:10:19;4.70;99.90
7972;DHT22;4031;49.758;6.120;2022-12-07T15:12:48;4.60;99.90
7972;DHT22;4031;49.758;6.120;2022-12-07T15:15:14;4.60;99.90
7972;DHT22;4031;49.758;6.120;2022-12-07T15:17:40;4.50;99.90
7972;DHT22;4031;49.758;6.120;2022-12-07T15:20:15;4.30;99.90
7972;DHT22;4031;49.758;6.120;2022-12-07T15:22:42;4.20;99.90
7972;DHT22;4031;49.758;6.120;2022-12-07T15:25:12;4.10;99.90
7972;DHT22;4031;49.758;6.120;2022-12-07T15:27:38;4.00;99.90
7972;DHT22;4031;49.758;6.120;2022-12-07T15:30:04;3.90;99.90
7972;DHT22;4031;49.758;6.120;2022-12-07T15:32:30;3.90;99.90
7972;DHT22;4031;49.758;6.120;2022-12-07T15:34:56;3.90;99.90
7972;DHT22;4031;49.758;6.120;2022-12-07T15:37:22;3.80;99.90
7972;DHT22;4031;49.758;6.120;2022-12-07T15:39:48;3.80;99.90
7972;DHT22;4031;49.758;6.120;2022-12-07T15:42:13;3.80;99.90
7972;DHT22;4031;49.758;6.120;2022-12-07T15:44:39;3.80;99.90
7972;DHT22;4031;49.758;6.120;2022-12-07T15:47:23;3.70;99.90
7972;DHT22;4031;49.758;6.120;2022-12-07T15:49:49;3.70;99.90
7972;DHT22;4031;49.758;6.120;2022-12-07T15:52:14;3.70;99.90
7972;DHT22;4031;49.758;6.120;2022-12-07T15:54:41;3.60;99.90
7972;DHT22;4031;49.758;6.120;2022-12-07T15:57:07;3.60;99.90
7972;DHT22;4031;49.758;6.120;2022-12-07T15:59:32;3.60;99.90
7972;DHT22;4031;49.758;6.120;2022-12-07T16:01:59;3.50;99.90
7972;DHT22;4031;49.758;6.120;2022-12-07T16:04:27;3.40;99.90
7972;DHT22;4031;49.758;6.120;2022-12-07T16:06:54;3.50;99.90
7972;DHT22;4031;49.758;6.120;2022-12-07T16:09:20;3.40;99.90
7972;DHT22;4031;49.758;6.120;2022-12-07T16:11:46;3.40;99.90
7972;DHT22;4031;49.758;6.120;2022-12-07T16:14:14;3.40;99.90
7972;DHT22;4031;49.758;6.120;2022-12-07T16:16:39;3.40;99.90
7972;DHT22;4031;49.758;6.120;2022-12-07T16:19:05;3.50;99.90
7972;DHT22;4031;49.758;6.120;2022-12-07T16:21:31;3.40;99.90
7972;DHT22;4031;49.758;6.120;2022-12-07T16:24:00;3.30;99.90
7972;DHT22;4031;49.758;6.120;2022-12-07T16:26:25;3.30;99.90
7972;DHT22;4031;49.758;6.120;2022-12-07T16:28:53;3.30;99.90
7972;DHT22;4031;49.758;6.120;2022-12-07T16:31:21;3.30;99.90
7972;DHT22;4031;49.758;6.120;2022-12-07T16:33:49;3.30;99.90
7972;DHT22;4031;49.758;6.120;2022-12-07T16:36:17;3.20;99.90
7972;DHT22;4031;49.758;6.120;2022-12-07T16:38:43;3.20;99.90
7972;DHT22;4031;49.758;6.120;2022-12-07T16:41:10;3.20;99.90
7972;DHT22;4031;49.758;6.120;2022-12-07T16:43:36;3.20;99.90
7972;DHT22;4031;49.758;6.120;2022-12-07T16:46:03;3.10;99.90
7972;DHT22;4031;49.758;6.120;2022-12-07T16:48:29;3.10;99.90
7972;DHT22;4031;49.758;6.120;2022-12-07T16:50:55;3.00;99.90
7972;DHT22;4031;49.758;6.120;2022-12-07T16:53:23;2.90;99.90
7972;DHT22;4031;49.758;6.120;2022-12-07T16:55:49;2.80;99.90
7972;DHT22;4031;49.758;6.120;2022-12-07T16:58:16;2.70;99.90
7972;DHT22;4031;49.758;6.120;2022-12-07T17:00:43;2.60;99.90
7972;DHT22;4031;49.758;6.120;2022-12-07T17:03:09;2.40;99.90
7972;DHT22;4031;49.758;6.120;2022-12-07T17:05:41;2.40;99.90
7972;DHT22;4031;49.758;6.120;2022-12-07T17:08:07;2.40;99.90
7972;DHT22;4031;49.758;6.120;2022-12-07T17:10:40;2.40;99.90
7972;DHT22;4031;49.758;6.120;2022-12-07T17:13:07;2.40;99.90
7972;DHT22;4031;49.758;6.120;2022-12-07T17:16:03;2.50;99.90
7972;DHT22;4031;49.758;6.120;2022-12-07T17:18:33;2.60;99.90
7972;DHT22;4031;49.758;6.120;2022-12-07T17:21:04;2.70;99.90
7972;DHT22;4031;49.758;6.120;2022-12-07T17:23:32;2.80;99.90
7972;DHT22;4031;49.758;6.120;2022-12-07T17:26:09;2.80;99.90
7972;DHT22;4031;49.758;6.120;2022-12-07T17:28:38;2.80;99.90
7972;DHT22;4031;49.758;6.120;2022-12-07T17:31:05;2.80;99.90
7972;DHT22;4031;49.758;6.120;2022-12-07T17:33:32;2.80;99.90
7972;DHT22;4031;49.758;6.120;2022-12-07T17:35:59;2.80;99.90
7972;DHT22;4031;49.758;6.120;2022-12-07T17:38:25;2.90;99.90
7972;DHT22;4031;49.758;6.120;2022-12-07T17:40:50;2.90;99.90
7972;DHT22;4031;49.758;6.120;2022-12-07T17:43:16;3.00;99.90
7972;DHT22;4031;49.758;6.120;2022-12-07T17:45:42;3.10;99.90
7972;DHT22;4031;49.758;6.120;2022-12-07T17:48:08;3.20;99.90
7972;DHT22;4031;49.758;6.120;2022-12-07T17:50:33;3.20;99.90
7972;DHT22;4031;49.758;6.120;2022-12-07T17:53:18;3.30;99.90
7972;DHT22;4031;49.758;6.120;2022-12-07T17:55:43;3.30;99.90
7972;DHT22;4031;49.758;6.120;2022-12-07T17:58:09;3.30;99.90
7972;DHT22;4031;49.758;6.120;2022-12-07T18:00:35;3.40;99.90
7972;DHT22;4031;49.758;6.120;2022-12-07T18:03:05;3.40;99.90
7972;DHT22;4031;49.758;6.120;2022-12-07T18:05:35;3.50;99.90
7972;DHT22;4031;49.758;6.120;2022-12-07T18:08:04;3.50;99.90
7972;DHT22;4031;49.758;6.120;2022-12-07T18:10:30;3.50;99.90
7972;DHT22;4031;49.758;6.120;2022-12-07T18:12:56;3.60;99.90
7972;DHT22;4031;49.758;6.120;2022-12-07T18:15:42;3.60;99.90
7972;DHT22;4031;49.758;6.120;2022-12-07T18:18:08;3.60;99.90
7972;DHT22;4031;49.758;6.120;2022-12-07T18:20:34;3.60;99.90
7972;DHT22;4031;49.758;6.120;2022-12-07T18:22:59;3.60;99.90
7972;DHT22;4031;49.758;6.120;2022-12-07T18:25:25;3.60;99.90